Time;durP1;ratioP1;P1;durP2;ratioP2;P2;SDS_P1;SDS_P2;PMS_P1;PMS_P2;Temp;Humidity;BMP_temperature;BMP_pressure;BME280_temperature;BME280_humidity;BME280_pressure;Samples;Min_cycle;Max_cycle;Signal;HPM_P1;HPM_P2
2023/07/27 00:02:11;0.00;0.00;0.62;0.00;0.00;0.62;2.67;1.50;;;28.50;25.10;;;;;;2264259;61;20888;-62
2023/07/27 00:04:55;0.00;0.00;0.62;0.00;0.00;0.62;2.20;1.37;;;28.50;25.20;;;;;;2262240;61;20368;-60
2023/07/27 00:07:40;0.00;0.00;0.62;0.00;0.00;0.62;2.30;1.80;;;28.50;25.10;;;;;;2260100;61;20427;-59
2023/07/27 00:10:25;0.00;0.00;0.62;0.00;0.00;0.62;2.20;1.60;;;28.50;25.20;;;;;;2259826;61;20399;-60
2023/07/27 00:13:10;0.00;0.00;0.62;0.00;0.00;0.62;2.10;1.40;;;28.50;25.20;;;;;;2260323;61;20361;-57
2023/07/27 00:15:55;0.00;0.00;0.62;0.00;0.00;0.62;1.80;1.33;;;28.50;25.20;;;;;;2259871;61;20626;-58
2023/07/27 00:18:40;0.00;0.00;0.62;0.00;0.00;0.62;2.27;1.77;;;28.40;25.10;;;;;;2259664;61;20385;-61
2023/07/27 00:21:25;0.00;0.00;0.62;0.00;0.00;0.62;1.90;1.30;;;28.50;25.20;;;;;;2259304;61;20361;-61
2023/07/27 00:24:10;0.00;0.00;0.62;0.00;0.00;0.62;3.07;2.73;;;28.50;25.10;;;;;;2260097;61;20400;-59
2023/07/27 00:26:54;0.00;0.00;0.62;0.00;0.00;0.62;2.07;1.40;;;28.50;25.70;;;;;;2260252;61;20773;-57
2023/07/27 00:29:39;0.00;0.00;0.62;0.00;0.00;0.62;2.43;1.63;;;28.50;25.10;;;;;;2256786;61;20418;-60
2023/07/27 00:32:24;0.00;0.00;0.62;0.00;0.00;0.62;1.70;1.30;;;28.50;25.10;;;;;;2256131;61;20361;-60
2023/07/27 00:35:11;0.00;0.00;0.62;0.00;0.00;0.62;2.40;1.60;;;28.50;25.10;;;;;;2260120;61;20369;-58
2023/07/27 00:37:55;0.00;0.00;0.62;0.00;0.00;0.62;1.97;1.23;;;28.50;25.10;;;;;;2259989;61;20431;-61
2023/07/27 00:40:40;0.00;0.00;0.62;0.00;0.00;0.62;2.17;1.50;;;28.50;25.10;;;;;;2256953;61;20385;-59
2023/07/27 00:43:25;0.00;0.00;0.62;0.00;0.00;0.62;2.50;1.83;;;28.40;25.10;;;;;;2257202;61;20360;-59
2023/07/27 00:46:10;0.00;0.00;0.62;0.00;0.00;0.62;2.00;1.50;;;28.50;25.10;;;;;;2260151;61;20668;-60
2023/07/27 00:48:55;0.00;0.00;0.62;0.00;0.00;0.62;2.53;1.73;;;28.50;25.10;;;;;;2259868;61;20835;-61
2023/07/27 00:51:43;0.00;0.00;0.62;0.00;0.00;0.62;2.77;1.70;;;28.50;25.10;;;;;;2257283;61;20361;-58
2023/07/27 00:54:28;0.00;0.00;0.62;0.00;0.00;0.62;2.00;1.33;;;28.50;25.10;;;;;;2256903;61;20361;-61
2023/07/27 00:57:13;0.00;0.00;0.62;0.00;0.00;0.62;2.00;1.60;;;28.50;25.10;;;;;;2257026;61;20801;-60
2023/07/27 00:59:58;0.00;0.00;0.62;0.00;0.00;0.62;2.03;1.53;;;28.50;25.00;;;;;;2259499;61;20365;-60
2023/07/27 01:02:42;0.00;0.00;0.62;0.00;0.00;0.62;2.87;1.20;;;28.50;25.00;;;;;;2260325;61;20360;-60
2023/07/27 01:05:28;0.00;0.00;0.62;0.00;0.00;0.62;1.90;1.30;;;28.40;25.00;;;;;;2260290;61;20367;-61
2023/07/27 01:08:14;0.00;0.00;0.62;0.00;0.00;0.62;2.17;1.40;;;28.50;25.00;;;;;;2263674;61;20437;-61
2023/07/27 01:11:10;0.00;0.00;0.62;0.00;0.00;0.62;1.70;1.40;;;28.50;25.00;;;;;;2261066;61;20414;-60
2023/07/27 01:14:03;0.00;0.00;0.62;0.00;0.00;0.62;2.13;1.60;;;28.50;25.00;;;;;;2260941;61;20766;-60
2023/07/27 01:16:55;0.00;0.00;0.62;0.00;0.00;0.62;2.40;1.50;;;28.40;25.00;;;;;;2264166;61;20371;-60
2023/07/27 01:20:04;0.00;0.00;0.62;0.00;0.00;0.62;1.60;1.10;;;28.40;24.90;;;;;;2260826;61;20391;-60
2023/07/27 01:23:17;0.00;0.00;0.62;0.00;0.00;0.62;1.63;1.40;;;28.50;25.00;;;;;;2260521;61;20355;-66
2023/07/27 01:26:35;0.00;0.00;0.62;0.00;0.00;0.62;2.10;1.73;;;28.40;24.90;;;;;;2264481;61;20706;-60
2023/07/27 01:29:44;0.00;0.00;0.62;0.00;0.00;0.62;1.97;1.40;;;28.40;24.90;;;;;;2247354;61;20493;-60
2023/07/27 01:32:35;0.00;0.00;0.62;0.00;0.00;0.62;2.47;1.60;;;28.40;24.90;;;;;;2248465;61;20378;-60
2023/07/27 01:35:23;0.00;0.00;0.62;0.00;0.00;0.62;1.90;1.40;;;28.40;24.90;;;;;;2264214;61;20404;-60
2023/07/27 01:38:10;0.00;0.00;0.62;0.00;0.00;0.62;2.40;1.47;;;28.40;24.90;;;;;;2263725;61;20464;-61
2023/07/27 01:40:55;0.00;0.00;0.62;0.00;0.00;0.62;2.00;1.43;;;28.40;24.90;;;;;;2264207;61;20360;-60
2023/07/27 01:43:43;0.00;0.00;0.62;0.00;0.00;0.62;2.20;1.53;;;28.40;24.90;;;;;;2263933;61;20371;-60
2023/07/27 01:46:30;0.00;0.00;0.62;0.00;0.00;0.62;2.33;1.50;;;28.40;24.90;;;;;;2260869;61;20359;-60
2023/07/27 01:49:17;0.00;0.00;0.62;0.00;0.00;0.62;3.33;1.90;;;28.40;24.90;;;;;;2263754;61;20480;-59
2023/07/27 01:52:03;0.00;0.00;0.62;0.00;0.00;0.62;2.23;1.80;;;28.40;24.90;;;;;;2263702;61;20837;-60
2023/07/27 01:54:50;0.00;0.00;0.62;0.00;0.00;0.62;2.20;1.60;;;28.40;24.90;;;;;;2264232;61;20386;-60
2023/07/27 01:57:35;0.00;0.00;0.62;0.00;0.00;0.62;1.93;1.60;;;28.40;24.90;;;;;;2264119;61;20423;-59
2023/07/27 02:00:21;0.00;0.00;0.62;0.00;0.00;0.62;2.13;1.60;;;28.40;24.90;;;;;;2260225;61;20379;-60
2023/07/27 02:03:08;0.00;0.00;0.62;0.00;0.00;0.62;2.40;1.43;;;28.40;24.90;;;;;;2263998;61;20384;-60
2023/07/27 02:05:53;0.00;0.00;0.62;0.00;0.00;0.62;2.00;1.37;;;28.40;24.90;;;;;;2259962;61;20406;-60
2023/07/27 02:08:38;0.00;0.00;0.62;0.00;0.00;0.62;1.90;1.37;;;28.40;24.90;;;;;;2256285;61;20393;-60
2023/07/27 02:11:24;0.00;0.00;0.62;0.00;0.00;0.62;2.23;1.60;;;28.30;24.90;;;;;;2256941;61;20568;-58
2023/07/27 02:14:22;0.00;0.00;0.62;0.00;0.00;0.62;2.53;2.03;;;28.30;24.90;;;;;;2253523;61;20381;-60
2023/07/27 02:17:16;0.00;0.00;0.62;0.00;0.00;0.62;2.20;1.70;;;28.30;24.90;;;;;;2259982;61;20481;-60
2023/07/27 02:20:06;0.00;0.00;0.62;0.00;0.00;0.62;1.80;1.37;;;28.30;24.90;;;;;;2256433;61;20407;-60
2023/07/27 02:22:53;0.00;0.00;0.62;0.00;0.00;0.62;2.00;1.60;;;28.30;24.90;;;;;;2259728;61;20361;-58
2023/07/27 02:25:38;0.00;0.00;0.62;0.00;0.00;0.62;2.30;1.90;;;28.30;24.90;;;;;;2256822;61;20387;-59
2023/07/27 02:28:27;0.00;0.00;0.62;0.00;0.00;0.62;2.40;1.50;;;28.30;24.90;;;;;;2259281;61;20420;-66
2023/07/27 02:31:12;0.00;0.00;0.62;0.00;0.00;0.62;2.00;1.30;;;28.30;24.90;;;;;;2256537;61;20364;-58
2023/07/27 02:33:57;0.00;0.00;0.62;0.00;0.00;0.62;2.03;1.50;;;28.30;24.90;;;;;;2256695;61;20495;-59
2023/07/27 02:36:42;0.00;0.00;0.62;0.00;0.00;0.62;1.93;1.47;;;28.30;24.90;;;;;;2256356;61;20411;-58
2023/07/27 02:39:28;0.00;0.00;0.62;0.00;0.00;0.62;2.13;1.37;;;28.30;24.90;;;;;;2256424;61;20365;-60
2023/07/27 02:42:13;0.00;0.00;0.62;0.00;0.00;0.62;2.40;1.80;;;28.30;24.90;;;;;;2260928;61;20365;-61
2023/07/27 02:44:59;0.00;0.00;0.62;0.00;0.00;0.62;2.50;2.00;;;28.30;24.90;;;;;;2257796;61;20364;-59
2023/07/27 02:47:49;0.00;0.00;0.62;0.00;0.00;0.62;2.00;1.40;;;28.30;24.90;;;;;;2258118;61;20377;-59
2023/07/27 02:50:34;0.00;0.00;0.62;0.00;0.00;0.62;2.10;1.77;;;28.30;24.90;;;;;;2257479;61;20396;-59
2023/07/27 02:53:25;0.00;0.00;0.62;0.00;0.00;0.62;2.30;1.80;;;28.30;24.90;;;;;;2258030;61;20415;-60
2023/07/27 02:56:12;0.00;0.00;0.62;0.00;0.00;0.62;2.40;1.90;;;28.20;24.90;;;;;;2258223;61;20431;-60
2023/07/27 02:59:03;0.00;0.00;0.62;0.00;0.00;0.62;2.50;1.97;;;28.20;24.90;;;;;;2257165;61;20419;-60
2023/07/27 03:01:54;0.00;0.00;0.62;0.00;0.00;0.62;2.57;1.57;;;28.20;24.90;;;;;;2258210;61;20403;-60
2023/07/27 03:04:45;0.00;0.00;0.62;0.00;0.00;0.62;2.87;1.90;;;28.20;24.90;;;;;;2260012;61;20907;-57
2023/07/27 03:07:30;0.00;0.00;0.62;0.00;0.00;0.62;2.13;1.73;;;28.20;24.90;;;;;;2262080;61;20828;-59
2023/07/27 03:10:15;0.00;0.00;0.62;0.00;0.00;0.62;1.83;1.60;;;28.20;24.90;;;;;;2261930;61;20410;-60
2023/07/27 03:13:01;0.00;0.00;0.62;0.00;0.00;0.62;3.70;1.80;;;28.20;24.90;;;;;;2261940;61;20395;-61
2023/07/27 03:15:46;0.00;0.00;0.62;0.00;0.00;0.62;2.70;1.47;;;28.20;24.90;;;;;;2265408;61;20387;-60
2023/07/27 03:18:31;0.00;0.00;0.62;0.00;0.00;0.62;1.70;1.20;;;28.20;24.90;;;;;;2264669;61;20563;-60
2023/07/27 03:21:16;0.00;0.00;0.62;0.00;0.00;0.62;2.17;1.50;;;28.20;24.90;;;;;;2261501;61;20364;-60
2023/07/27 03:24:01;0.00;0.00;0.62;0.00;0.00;0.62;2.40;1.70;;;28.10;24.90;;;;;;2265098;61;20387;-60
2023/07/27 03:26:46;0.00;0.00;0.62;0.00;0.00;0.62;1.90;1.53;;;28.20;25.00;;;;;;2262054;61;20359;-60
2023/07/27 03:29:32;0.00;0.00;0.62;0.00;0.00;0.62;4.27;1.83;;;28.20;25.00;;;;;;2264454;61;20372;-60
2023/07/27 03:32:17;0.00;0.00;0.62;0.00;0.00;0.62;2.27;2.03;;;28.20;25.00;;;;;;2265189;61;20417;-60
2023/07/27 03:35:01;0.00;0.00;0.62;0.00;0.00;0.62;2.00;1.57;;;28.10;24.90;;;;;;2265026;61;20904;-60
2023/07/27 03:37:46;0.00;0.00;0.62;0.00;0.00;0.62;2.03;1.67;;;28.10;24.90;;;;;;2265174;61;20388;-58
2023/07/27 03:40:31;0.00;0.00;0.62;0.00;0.00;0.62;2.10;1.57;;;28.10;24.90;;;;;;2265007;61;20368;-60
2023/07/27 03:43:17;0.00;0.00;0.62;0.00;0.00;0.62;1.70;1.30;;;28.10;24.90;;;;;;2261575;61;20364;-60
2023/07/27 03:46:03;0.00;0.00;0.62;0.00;0.00;0.62;1.87;1.40;;;28.10;24.90;;;;;;2262290;61;20876;-60
2023/07/27 03:48:49;0.00;0.00;0.62;0.00;0.00;0.62;3.00;1.90;;;28.10;24.90;;;;;;2264628;61;20380;-62
2023/07/27 03:51:34;0.00;0.00;0.62;0.00;0.00;0.62;2.50;1.83;;;28.10;24.90;;;;;;2261609;61;20396;-60
2023/07/27 03:54:19;0.00;0.00;0.62;0.00;0.00;0.62;3.07;1.77;;;28.10;24.90;;;;;;2264374;61;20360;-58
2023/07/27 03:57:04;0.00;0.00;0.62;0.00;0.00;0.62;2.87;1.60;;;28.10;24.90;;;;;;2260784;61;20927;-60
2023/07/27 03:59:54;0.00;0.00;0.62;0.00;0.00;0.62;2.17;1.73;;;28.10;24.90;;;;;;2260866;61;20414;-59
2023/07/27 04:02:41;0.00;0.00;0.62;0.00;0.00;0.62;3.00;1.97;;;28.10;24.90;;;;;;2261346;61;20893;-59
2023/07/27 04:05:25;0.00;0.00;0.62;0.00;0.00;0.62;1.80;1.50;;;28.10;24.90;;;;;;2261044;61;20369;-60
2023/07/27 04:08:10;0.00;0.00;0.62;0.00;0.00;0.62;1.97;1.50;;;28.10;24.90;;;;;;2260587;61;20420;-60
2023/07/27 04:10:55;0.00;0.00;0.62;0.00;0.00;0.62;2.07;1.70;;;28.10;24.90;;;;;;2257216;61;20757;-60
2023/07/27 04:13:40;0.00;0.00;0.62;0.00;0.00;0.62;2.30;1.80;;;28.10;24.90;;;;;;2260029;61;20400;-60
2023/07/27 04:16:25;0.00;0.00;0.62;0.00;0.00;0.62;2.40;2.00;;;28.10;24.90;;;;;;2260534;61;20472;-59
2023/07/27 04:19:12;0.00;0.00;0.62;0.00;0.00;0.62;2.57;2.00;;;28.10;24.90;;;;;;2256305;61;20913;-58
2023/07/27 04:21:57;0.00;0.00;0.62;0.00;0.00;0.62;2.30;1.60;;;28.10;25.00;;;;;;2260325;61;20366;-59
2023/07/27 04:24:44;0.00;0.00;0.62;0.00;0.00;0.62;2.20;1.70;;;28.00;24.90;;;;;;2257020;61;20361;-60
2023/07/27 04:27:29;0.00;0.00;0.62;0.00;0.00;0.62;2.00;1.60;;;28.00;24.90;;;;;;2259740;61;20377;-60
2023/07/27 04:30:14;0.00;0.00;0.62;0.00;0.00;0.62;2.40;1.77;;;28.10;24.90;;;;;;2260308;61;20369;-60
2023/07/27 04:32:59;0.00;0.00;0.62;0.00;0.00;0.62;1.90;1.50;;;28.00;24.90;;;;;;2260251;61;20415;-60
2023/07/27 04:35:45;0.00;0.00;0.62;0.00;0.00;0.62;2.27;1.90;;;28.00;24.90;;;;;;2256796;61;20413;-60
2023/07/27 04:38:30;0.00;0.00;0.62;0.00;0.00;0.62;3.20;2.10;;;28.00;24.90;;;;;;2260018;61;20429;-60
2023/07/27 04:41:15;0.00;0.00;0.62;0.00;0.00;0.62;3.57;2.30;;;28.00;24.90;;;;;;2256753;61;20368;-62
2023/07/27 04:43:59;0.00;0.00;0.62;0.00;0.00;0.62;2.47;2.00;;;28.00;24.90;;;;;;2256906;61;20357;-60
2023/07/27 04:46:44;0.00;0.00;0.62;0.00;0.00;0.62;2.80;2.20;;;28.00;24.90;;;;;;2260493;61;20438;-57
2023/07/27 04:49:28;0.00;0.00;0.62;0.00;0.00;0.62;2.93;2.20;;;28.00;24.90;;;;;;2259338;61;20360;-60
2023/07/27 04:52:14;0.00;0.00;0.62;0.00;0.00;0.62;3.70;2.00;;;28.00;24.90;;;;;;2260383;61;20376;-60
2023/07/27 04:54:59;0.00;0.00;0.62;0.00;0.00;0.62;3.30;2.17;;;28.00;24.90;;;;;;2260437;61;20905;-60
2023/07/27 04:57:44;0.00;0.00;0.62;0.00;0.00;0.62;2.90;2.37;;;28.00;24.90;;;;;;2259788;61;20492;-60
2023/07/27 05:00:28;0.00;0.00;0.62;0.00;0.00;0.62;4.20;2.80;;;28.00;24.90;;;;;;2260073;61;20361;-60
2023/07/27 05:03:13;0.00;0.00;0.62;0.00;0.00;0.62;3.57;2.70;;;28.00;24.90;;;;;;2260288;61;20369;-60
2023/07/27 05:05:58;0.00;0.00;0.62;0.00;0.00;0.62;2.90;2.60;;;28.00;24.90;;;;;;2263656;61;20368;-62
2023/07/27 05:08:44;0.00;0.00;0.62;0.00;0.00;0.62;3.30;2.50;;;28.00;24.90;;;;;;2263890;61;20469;-60
2023/07/27 05:11:29;0.00;0.00;0.62;0.00;0.00;0.62;3.03;2.73;;;28.00;25.40;;;;;;2263988;61;20414;-60
2023/07/27 05:14:14;0.00;0.00;0.62;0.00;0.00;0.62;3.73;2.93;;;28.00;24.90;;;;;;2264279;61;20392;-60
2023/07/27 05:16:58;0.00;0.00;0.62;0.00;0.00;0.62;4.33;3.40;;;28.00;24.90;;;;;;2264356;61;20384;-60
2023/07/27 05:19:43;0.00;0.00;0.62;0.00;0.00;0.62;3.23;2.93;;;28.00;24.90;;;;;;2263451;61;20368;-59
2023/07/27 05:22:27;0.00;0.00;0.62;0.00;0.00;0.62;3.77;3.20;;;28.00;24.90;;;;;;2264181;61;20357;-59
2023/07/27 05:25:14;0.00;0.00;0.62;0.00;0.00;0.62;4.50;3.03;;;28.00;24.90;;;;;;2264390;61;20884;-60
2023/07/27 05:28:30;0.00;0.00;0.62;0.00;0.00;0.62;4.17;3.30;;;28.00;24.90;;;;;;2267663;55;21059;-63
2023/07/27 05:31:15;0.00;0.00;0.62;0.00;0.00;0.62;3.53;3.03;;;28.00;24.90;;;;;;2264208;61;20718;-60
2023/07/27 05:34:00;0.00;0.00;0.62;0.00;0.00;0.62;4.10;3.10;;;28.00;24.90;;;;;;2263786;61;20934;-60
2023/07/27 05:36:44;0.00;0.00;0.62;0.00;0.00;0.62;4.07;3.67;;;28.00;24.90;;;;;;2264205;61;20399;-59
2023/07/27 05:39:29;0.00;0.00;0.62;0.00;0.00;0.62;3.53;3.00;;;28.00;25.00;;;;;;2256812;61;20368;-62
2023/07/27 05:42:15;0.00;0.00;0.62;0.00;0.00;0.62;3.00;2.60;;;28.00;25.00;;;;;;2259712;61;20445;-59
2023/07/27 05:45:00;0.00;0.00;0.62;0.00;0.00;0.62;3.70;3.30;;;28.00;25.00;;;;;;2260012;61;20411;-60
2023/07/27 05:47:44;0.00;0.00;0.62;0.00;0.00;0.62;3.60;3.23;;;27.90;24.90;;;;;;2259974;61;20916;-60
2023/07/27 05:50:29;0.00;0.00;0.62;0.00;0.00;0.62;3.03;2.73;;;28.00;25.00;;;;;;2259411;61;20357;-60
2023/07/27 05:53:13;0.00;0.00;0.62;0.00;0.00;0.62;3.80;3.30;;;28.00;25.00;;;;;;2260258;61;20897;-60
2023/07/27 05:55:58;0.00;0.00;0.62;0.00;0.00;0.62;4.90;3.47;;;28.00;25.00;;;;;;2259397;61;20380;-59
2023/07/27 05:58:44;0.00;0.00;0.62;0.00;0.00;0.62;4.40;3.20;;;28.00;25.00;;;;;;2259892;61;20385;-60
2023/07/27 06:01:28;0.00;0.00;0.62;0.00;0.00;0.62;4.13;3.57;;;28.00;25.00;;;;;;2257069;61;20491;-60
2023/07/27 06:04:13;0.00;0.00;0.62;0.00;0.00;0.62;3.10;2.80;;;28.00;25.00;;;;;;2260407;61;20380;-59
2023/07/27 06:06:58;0.00;0.00;0.62;0.00;0.00;0.62;4.30;3.80;;;28.00;25.00;;;;;;2264224;61;20943;-58
2023/07/27 06:09:43;0.00;0.00;0.62;0.00;0.00;0.62;3.47;3.07;;;28.00;25.00;;;;;;2263793;61;20368;-60
2023/07/27 06:12:28;0.00;0.00;0.62;0.00;0.00;0.62;3.30;2.77;;;28.00;25.00;;;;;;2264223;61;20361;-60
2023/07/27 06:15:15;0.00;0.00;0.62;0.00;0.00;0.62;3.40;2.67;;;28.00;25.00;;;;;;2267236;61;20355;-62
2023/07/27 06:17:59;0.00;0.00;0.62;0.00;0.00;0.62;3.57;2.80;;;27.90;25.00;;;;;;2266673;61;20384;-61
2023/07/27 06:20:44;0.00;0.00;0.62;0.00;0.00;0.62;4.53;2.97;;;27.90;25.00;;;;;;2263744;61;20404;-61
2023/07/27 06:23:29;0.00;0.00;0.62;0.00;0.00;0.62;3.90;3.50;;;28.00;25.00;;;;;;2266762;61;20376;-61
2023/07/27 06:26:14;0.00;0.00;0.62;0.00;0.00;0.62;3.70;2.83;;;28.00;25.00;;;;;;2266479;61;20364;-61
2023/07/27 06:28:59;0.00;0.00;0.62;0.00;0.00;0.62;3.07;2.70;;;28.00;25.10;;;;;;2266713;61;20381;-61
2023/07/27 06:31:45;0.00;0.00;0.62;0.00;0.00;0.62;3.43;2.60;;;28.00;25.10;;;;;;2266805;61;20943;-60
2023/07/27 06:34:30;0.00;0.00;0.62;0.00;0.00;0.62;3.90;2.73;;;28.00;25.10;;;;;;2266325;61;20380;-61
2023/07/27 06:37:15;0.00;0.00;0.62;0.00;0.00;0.62;2.90;2.33;;;28.00;25.10;;;;;;2267049;61;20426;-61
2023/07/27 06:39:59;0.00;0.00;0.62;0.00;0.00;0.62;4.03;2.90;;;28.00;25.10;;;;;;2266091;61;20371;-58
2023/07/27 06:42:44;0.00;0.00;0.62;0.00;0.00;0.62;3.27;2.70;;;28.00;25.10;;;;;;2266790;61;20364;-61
2023/07/27 06:45:28;0.00;0.00;0.62;0.00;0.00;0.62;3.40;3.07;;;27.90;25.10;;;;;;2266708;61;20388;-61
2023/07/27 06:48:15;0.00;0.00;0.62;0.00;0.00;0.62;3.70;2.50;;;27.90;25.10;;;;;;2266188;61;20403;-61
2023/07/27 06:51:00;0.00;0.00;0.62;0.00;0.00;0.62;3.10;2.50;;;27.90;25.10;;;;;;2266898;61;20417;-60
2023/07/27 06:53:44;0.00;0.00;0.62;0.00;0.00;0.62;3.00;2.40;;;27.90;25.10;;;;;;2266942;61;20756;-60
2023/07/27 06:56:29;0.00;0.00;0.62;0.00;0.00;0.62;4.13;2.50;;;27.90;25.10;;;;;;2266377;61;20375;-61
2023/07/27 07:02:24;0.00;0.00;0.62;0.00;0.00;0.62;3.30;2.30;;;27.90;25.10;;;;;;2267491;61;20378;-61
2023/07/27 07:05:10;0.00;0.00;0.62;0.00;0.00;0.62;3.07;2.30;;;27.90;25.20;;;;;;2268945;61;20374;-61
2023/07/27 07:07:55;0.00;0.00;0.62;0.00;0.00;0.62;3.60;2.40;;;27.90;25.10;;;;;;2269916;61;20393;-60
2023/07/27 07:10:40;0.00;0.00;0.62;0.00;0.00;0.62;2.93;2.67;;;27.90;25.10;;;;;;2270150;61;20391;-60
2023/07/27 07:13:24;0.00;0.00;0.62;0.00;0.00;0.62;2.60;2.10;;;27.90;25.10;;;;;;2267672;61;20355;-61
2023/07/27 07:16:09;0.00;0.00;0.62;0.00;0.00;0.62;3.23;2.23;;;27.90;25.20;;;;;;2270890;61;20383;-61
2023/07/27 07:18:54;0.00;0.00;0.62;0.00;0.00;0.62;2.60;2.33;;;27.90;25.10;;;;;;2270111;61;20999;-64
2023/07/27 07:21:40;0.00;0.00;0.62;0.00;0.00;0.62;2.63;1.97;;;27.90;25.20;;;;;;2267615;61;20387;-61
2023/07/27 07:24:25;0.00;0.00;0.62;0.00;0.00;0.62;2.70;2.10;;;27.90;25.20;;;;;;2270070;61;20769;-61
2023/07/27 07:27:09;0.00;0.00;0.62;0.00;0.00;0.62;2.40;2.20;;;27.90;25.20;;;;;;2267897;61;20417;-61
2023/07/27 07:29:54;0.00;0.00;0.62;0.00;0.00;0.62;2.93;2.40;;;27.90;25.20;;;;;;2270958;61;20821;-61
2023/07/27 07:32:39;0.00;0.00;0.62;0.00;0.00;0.62;2.30;2.03;;;27.90;25.20;;;;;;2268341;61;20416;-58
2023/07/27 07:35:24;0.00;0.00;0.62;0.00;0.00;0.62;2.63;2.27;;;27.90;25.20;;;;;;2271745;61;20375;-59
2023/07/27 07:38:10;0.00;0.00;0.62;0.00;0.00;0.62;2.50;2.00;;;27.90;25.20;;;;;;2271252;61;20470;-62
2023/07/27 07:40:55;0.00;0.00;0.62;0.00;0.00;0.62;2.27;2.00;;;27.90;25.80;;;;;;2271192;61;20416;-61
2023/07/27 07:43:40;0.00;0.00;0.62;0.00;0.00;0.62;2.63;2.37;;;27.90;25.20;;;;;;2271604;61;20389;-61
2023/07/27 07:46:25;0.00;0.00;0.62;0.00;0.00;0.62;2.40;1.83;;;27.90;25.30;;;;;;2271306;61;20899;-61
2023/07/27 07:49:10;0.00;0.00;0.62;0.00;0.00;0.62;2.73;2.27;;;27.90;25.30;;;;;;2270872;61;20391;-61
2023/07/27 07:51:55;0.00;0.00;0.62;0.00;0.00;0.62;4.67;2.30;;;27.90;25.30;;;;;;2271457;61;20387;-61
2023/07/27 07:54:41;0.00;0.00;0.62;0.00;0.00;0.62;2.50;2.00;;;27.90;25.30;;;;;;2270652;61;20391;-61
2023/07/27 07:57:27;0.00;0.00;0.62;0.00;0.00;0.62;3.10;2.00;;;27.90;25.30;;;;;;2297677;40;21968;31
2023/07/27 08:00:13;0.00;0.00;0.62;0.00;0.00;0.62;2.93;2.10;;;27.90;25.30;;;;;;2253221;61;20376;-60
2023/07/27 08:03:00;0.00;0.00;0.62;0.00;0.00;0.62;3.97;2.57;;;27.90;25.30;;;;;;2250643;61;20371;-59
2023/07/27 08:05:44;0.00;0.00;0.62;0.00;0.00;0.62;2.40;1.97;;;27.90;25.30;;;;;;2251920;61;20379;-59
2023/07/27 08:08:29;0.00;0.00;0.62;0.00;0.00;0.62;3.10;1.97;;;27.90;25.30;;;;;;2253175;61;20478;-59
2023/07/27 08:11:15;0.00;0.00;0.62;0.00;0.00;0.62;2.50;2.00;;;27.90;25.30;;;;;;2255343;61;20366;-61
2023/07/27 08:14:02;0.00;0.00;0.62;0.00;0.00;0.62;2.03;1.57;;;27.90;25.30;;;;;;2255433;61;20398;-60
2023/07/27 08:16:47;0.00;0.00;0.62;0.00;0.00;0.62;2.87;2.27;;;27.90;25.30;;;;;;2254810;61;20419;-60
2023/07/27 08:19:31;0.00;0.00;0.62;0.00;0.00;0.62;2.47;2.10;;;27.90;25.30;;;;;;2252021;61;20366;-60
2023/07/27 08:22:16;0.00;0.00;0.62;0.00;0.00;0.62;2.97;2.17;;;27.90;25.40;;;;;;2255552;61;20413;-60
2023/07/27 08:25:01;0.00;0.00;0.62;0.00;0.00;0.62;2.37;1.80;;;27.90;25.40;;;;;;2254926;61;20390;-58
2023/07/27 08:27:48;0.00;0.00;0.62;0.00;0.00;0.62;2.83;2.00;;;27.90;25.40;;;;;;2255580;61;20475;-60
2023/07/27 08:30:33;0.00;0.00;0.62;0.00;0.00;0.62;2.63;2.00;;;27.90;25.40;;;;;;2251924;61;20367;-60
2023/07/27 08:33:18;0.00;0.00;0.62;0.00;0.00;0.62;2.10;1.70;;;27.90;25.40;;;;;;2255212;61;20378;-59
2023/07/27 08:36:03;0.00;0.00;0.62;0.00;0.00;0.62;2.70;2.17;;;27.90;25.40;;;;;;2255737;61;20393;-60
2023/07/27 08:38:48;0.00;0.00;0.62;0.00;0.00;0.62;2.80;2.20;;;27.90;25.40;;;;;;2254144;61;20667;-60
2023/07/27 08:41:34;0.00;0.00;0.62;0.00;0.00;0.62;2.77;2.47;;;27.90;25.40;;;;;;2255733;61;20394;-60
2023/07/27 08:44:21;0.00;0.00;0.62;0.00;0.00;0.62;2.60;1.93;;;27.90;25.50;;;;;;2255444;61;20362;-60
2023/07/27 08:47:07;0.00;0.00;0.62;0.00;0.00;0.62;3.67;2.40;;;27.90;25.50;;;;;;2254855;61;20414;-60
2023/07/27 08:49:52;0.00;0.00;0.62;0.00;0.00;0.62;2.80;2.13;;;27.90;25.50;;;;;;2255042;61;20780;-60
2023/07/27 08:52:37;0.00;0.00;0.62;0.00;0.00;0.62;2.87;2.17;;;27.90;25.50;;;;;;2255489;61;20375;-59
2023/07/27 08:55:22;0.00;0.00;0.62;0.00;0.00;0.62;2.30;1.80;;;27.90;25.50;;;;;;2255462;61;20498;-60
2023/07/27 08:58:07;0.00;0.00;0.62;0.00;0.00;0.62;2.40;2.00;;;27.90;25.50;;;;;;2255404;61;20491;-59
2023/07/27 09:00:54;0.00;0.00;0.62;0.00;0.00;0.62;2.63;2.10;;;27.90;25.50;;;;;;2252090;61;20424;-61
2023/07/27 09:03:42;0.00;0.00;0.62;0.00;0.00;0.62;2.20;1.60;;;27.90;25.50;;;;;;2255290;61;20495;-61
2023/07/27 09:06:39;0.00;0.00;0.62;0.00;0.00;0.62;2.50;1.80;;;27.90;25.50;;;;;;2519328;53;20404;-60
2023/07/27 09:09:28;0.00;0.00;0.62;0.00;0.00;0.62;3.40;1.93;;;27.90;25.60;;;;;;2250888;61;20387;-59
2023/07/27 09:12:17;0.00;0.00;0.62;0.00;0.00;0.62;2.70;1.97;;;27.90;25.60;;;;;;2248175;61;20356;-59
2023/07/27 09:15:12;0.00;0.00;0.62;0.00;0.00;0.62;2.30;2.00;;;27.90;25.60;;;;;;2251060;61;20813;-61
2023/07/27 09:18:01;0.00;0.00;0.62;0.00;0.00;0.62;3.30;1.67;;;27.90;25.60;;;;;;2250951;61;20855;-61
2023/07/27 09:20:46;0.00;0.00;0.62;0.00;0.00;0.62;2.63;2.10;;;27.90;25.60;;;;;;2248196;61;20460;-61
2023/07/27 09:23:30;0.00;0.00;0.62;0.00;0.00;0.62;2.63;1.80;;;27.90;25.70;;;;;;2250611;61;20924;-61
2023/07/27 09:26:24;0.00;0.00;0.62;0.00;0.00;0.62;1.97;1.40;;;27.90;25.70;;;;;;2248049;61;20963;-61
2023/07/27 09:29:09;0.00;0.00;0.62;0.00;0.00;0.62;2.70;1.70;;;27.90;25.70;;;;;;2248929;61;20388;-61
2023/07/27 09:31:58;0.00;0.00;0.62;0.00;0.00;0.62;2.10;1.60;;;27.90;25.70;;;;;;2250825;61;20419;-60
2023/07/27 09:34:44;0.00;0.00;0.62;0.00;0.00;0.62;2.53;1.93;;;27.90;25.70;;;;;;2248236;61;20368;-62
2023/07/27 09:37:29;0.00;0.00;0.62;0.00;0.00;0.62;2.23;1.83;;;27.90;25.70;;;;;;2251217;61;20416;-62
2023/07/27 09:40:18;0.00;0.00;0.62;0.00;0.00;0.62;2.90;2.00;;;27.90;25.70;;;;;;2251233;61;20387;-62
2023/07/27 09:43:06;0.00;0.00;0.62;0.00;0.00;0.62;2.23;1.80;;;27.90;25.80;;;;;;2251593;61;20896;-61
2023/07/27 09:45:58;0.00;0.00;0.62;0.00;0.00;0.62;3.20;1.90;;;27.90;25.80;;;;;;2251476;61;20800;-60
2023/07/27 09:48:43;0.00;0.00;0.62;0.00;0.00;0.62;3.47;2.27;;;28.00;25.80;;;;;;2251265;61;20959;-60
2023/07/27 09:51:29;0.00;0.00;0.62;0.00;0.00;0.62;3.27;1.80;;;27.90;25.80;;;;;;2251382;61;20439;-61
2023/07/27 09:54:14;0.00;0.00;0.62;0.00;0.00;0.62;2.63;2.20;;;27.90;25.80;;;;;;2251185;61;20457;-61
2023/07/27 09:57:00;0.00;0.00;0.62;0.00;0.00;0.62;2.10;1.80;;;28.00;25.80;;;;;;2250974;61;20419;-61
2023/07/27 09:59:45;0.00;0.00;0.62;0.00;0.00;0.62;2.07;1.83;;;27.90;25.80;;;;;;2250455;61;20804;-62
2023/07/27 10:02:32;0.00;0.00;0.62;0.00;0.00;0.62;1.93;1.73;;;28.00;25.80;;;;;;2251336;61;20831;-63
2023/07/27 10:05:17;0.00;0.00;0.62;0.00;0.00;0.62;2.53;1.77;;;28.00;25.90;;;;;;2254031;61;20429;-61
2023/07/27 10:08:05;0.00;0.00;0.62;0.00;0.00;0.62;4.10;2.13;;;27.90;25.80;;;;;;2254599;61;21049;-61
2023/07/27 10:10:53;0.00;0.00;0.62;0.00;0.00;0.62;2.87;2.20;;;28.00;25.90;;;;;;2254995;61;20371;-61
2023/07/27 10:13:41;0.00;0.00;0.62;0.00;0.00;0.62;2.57;1.63;;;28.00;25.90;;;;;;2255350;61;20367;-61
2023/07/27 10:16:30;0.00;0.00;0.62;0.00;0.00;0.62;2.30;1.77;;;28.00;25.90;;;;;;2254745;61;20446;-61
2023/07/27 10:19:15;0.00;0.00;0.62;0.00;0.00;0.62;2.90;2.17;;;28.00;25.90;;;;;;2254362;61;20675;-61
2023/07/27 10:22:07;0.00;0.00;0.62;0.00;0.00;0.62;3.17;2.17;;;28.00;25.90;;;;;;2254977;61;20406;-61
2023/07/27 10:24:56;0.00;0.00;0.62;0.00;0.00;0.62;3.10;1.90;;;28.00;25.90;;;;;;2255335;61;20358;-61
2023/07/27 10:27:55;0.00;0.00;0.62;0.00;0.00;0.62;2.43;1.87;;;28.00;25.90;;;;;;2255344;61;20429;-61
2023/07/27 10:30:43;0.00;0.00;0.62;0.00;0.00;0.62;3.03;2.00;;;28.00;25.90;;;;;;2254750;61;20390;-61
2023/07/27 10:33:27;0.00;0.00;0.62;0.00;0.00;0.62;3.13;2.20;;;28.00;25.90;;;;;;2255346;61;20367;-60
2023/07/27 10:36:12;0.00;0.00;0.62;0.00;0.00;0.62;2.50;2.07;;;28.00;25.90;;;;;;2255588;61;20441;-61
2023/07/27 10:38:57;0.00;0.00;0.62;0.00;0.00;0.62;3.07;2.23;;;28.00;25.90;;;;;;2254545;61;20441;-61
2023/07/27 10:42:02;0.00;0.00;0.62;0.00;0.00;0.62;2.73;1.83;;;28.00;25.90;;;;;;2255840;61;20406;-60
2023/07/27 10:44:48;0.00;0.00;0.62;0.00;0.00;0.62;3.00;2.33;;;28.00;25.90;;;;;;2255033;61;20359;-61
2023/07/27 10:47:38;0.00;0.00;0.62;0.00;0.00;0.62;2.60;2.20;;;28.00;25.90;;;;;;2255521;61;20762;-61
2023/07/27 10:50:23;0.00;0.00;0.62;0.00;0.00;0.62;2.77;2.27;;;28.00;26.00;;;;;;2254814;61;20358;-62
2023/07/27 10:53:08;0.00;0.00;0.62;0.00;0.00;0.62;3.23;2.37;;;28.00;26.00;;;;;;2255429;61;20386;-62
2023/07/27 10:55:53;0.00;0.00;0.62;0.00;0.00;0.62;3.60;2.67;;;28.00;26.00;;;;;;2255353;61;20417;-62
2023/07/27 10:58:40;0.00;0.00;0.62;0.00;0.00;0.62;4.20;2.93;;;28.00;26.00;;;;;;2254367;61;20807;-61
2023/07/27 11:01:28;0.00;0.00;0.62;0.00;0.00;0.62;4.00;2.87;;;28.00;26.00;;;;;;2254610;61;21011;-62